sensor_id;sensor_type;location;lat;lon;timestamp;pressure;altitude;pressure_sealevel;temperature;humidity
20860;BME280;10590;48.154;11.514;2022-12-18T00:04:16;96653.63;;;-6.13;100.00
20860;BME280;10590;48.154;11.514;2022-12-18T00:09:21;96641.22;;;-5.98;100.00
20860;BME280;10590;48.154;11.514;2022-12-18T00:14:23;96648.66;;;-6.36;100.00
20860;BME280;10590;48.154;11.514;2022-12-18T00:19:24;96649.94;;;-6.26;100.00
20860;BME280;10590;48.154;11.514;2022-12-18T00:24:27;96638.03;;;-6.28;100.00
20860;BME280;10590;48.154;11.514;2022-12-18T00:29:29;96641.63;;;-6.29;100.00
20860;BME280;10590;48.154;11.514;2022-12-18T00:34:30;96666.53;;;-6.19;100.00
20860;BME280;10590;48.154;11.514;2022-12-18T00:39:33;96668.53;;;-6.49;100.00
20860;BME280;10590;48.154;11.514;2022-12-18T00:44:35;96669.47;;;-6.00;100.00
20860;BME280;10590;48.154;11.514;2022-12-18T00:49:37;96674.25;;;-6.10;100.00
20860;BME280;10590;48.154;11.514;2022-12-18T00:54:39;96681.25;;;-6.24;100.00
20860;BME280;10590;48.154;11.514;2022-12-18T00:59:41;96678.13;;;-6.06;100.00
20860;BME280;10590;48.154;11.514;2022-12-18T01:04:43;96683.28;;;-6.20;100.00
20860;BME280;10590;48.154;11.514;2022-12-18T01:09:46;96694.75;;;-6.49;100.00
20860;BME280;10590;48.154;11.514;2022-12-18T01:14:48;96686.28;;;-6.72;100.00
20860;BME280;10590;48.154;11.514;2022-12-18T01:19:49;96690.44;;;-6.56;100.00
20860;BME280;10590;48.154;11.514;2022-12-18T01:24:52;96702.38;;;-6.32;100.00
20860;BME280;10590;48.154;11.514;2022-12-18T01:29:54;96724.69;;;-6.15;100.00
20860;BME280;10590;48.154;11.514;2022-12-18T01:34:55;96726.78;;;-6.04;100.00
20860;BME280;10590;48.154;11.514;2022-12-18T01:39:58;96728.97;;;-6.57;100.00
20860;BME280;10590;48.154;11.514;2022-12-18T01:45:04;96724.78;;;-6.30;100.00
20860;BME280;10590;48.154;11.514;2022-12-18T01:50:09;96725.53;;;-6.57;100.00
20860;BME280;10590;48.154;11.514;2022-12-18T01:55:14;96728.78;;;-6.34;100.00
20860;BME280;10590;48.154;11.514;2022-12-18T02:00:19;96731.91;;;-6.24;100.00
20860;BME280;10590;48.154;11.514;2022-12-18T02:05:29;96734.78;;;-6.40;100.00
20860;BME280;10590;48.154;11.514;2022-12-18T02:10:41;96720.81;;;-6.47;100.00
20860;BME280;10590;48.154;11.514;2022-12-18T02:15:51;96712.16;;;-6.20;100.00
20860;BME280;10590;48.154;11.514;2022-12-18T02:20:59;96712.56;;;-6.44;100.00
20860;BME280;10590;48.154;11.514;2022-12-18T02:26:15;96722.13;;;-6.36;100.00
20860;BME280;10590;48.154;11.514;2022-12-18T02:31:21;96715.00;;;-6.43;100.00
20860;BME280;10590;48.154;11.514;2022-12-18T02:36:25;96707.06;;;-6.21;100.00
20860;BME280;10590;48.154;11.514;2022-12-18T02:41:30;96715.44;;;-6.39;100.00
20860;BME280;10590;48.154;11.514;2022-12-18T02:46:34;96709.53;;;-6.20;100.00
20860;BME280;10590;48.154;11.514;2022-12-18T02:51:44;96725.97;;;-6.04;100.00
20860;BME280;10590;48.154;11.514;2022-12-18T02:56:52;96735.69;;;-6.26;100.00
20860;BME280;10590;48.154;11.514;2022-12-18T03:01:58;96719.28;;;-6.35;100.00
20860;BME280;10590;48.154;11.514;2022-12-18T03:07:03;96715.66;;;-6.34;100.00
20860;BME280;10590;48.154;11.514;2022-12-18T03:12:12;96705.53;;;-6.37;100.00
20860;BME280;10590;48.154;11.514;2022-12-18T03:17:27;96704.88;;;-6.18;100.00
20860;BME280;10590;48.154;11.514;2022-12-18T03:22:32;96706.97;;;-6.34;100.00
20860;BME280;10590;48.154;11.514;2022-12-18T03:27:37;96709.69;;;-6.21;100.00
20860;BME280;10590;48.154;11.514;2022-12-18T03:32:42;96722.66;;;-6.20;100.00
20860;BME280;10590;48.154;11.514;2022-12-18T03:37:45;96723.59;;;-6.49;100.00
20860;BME280;10590;48.154;11.514;2022-12-18T03:42:51;96722.22;;;-6.23;100.00
20860;BME280;10590;48.154;11.514;2022-12-18T03:48:00;96724.34;;;-6.05;100.00
20860;BME280;10590;48.154;11.514;2022-12-18T03:53:10;96720.72;;;-6.04;100.00
20860;BME280;10590;48.154;11.514;2022-12-18T03:58:19;96723.22;;;-6.24;100.00
20860;BME280;10590;48.154;11.514;2022-12-18T04:03:23;96731.72;;;-5.87;100.00
20860;BME280;10590;48.154;11.514;2022-12-18T04:08:25;96732.63;;;-6.30;100.00
20860;BME280;10590;48.154;11.514;2022-12-18T04:13:32;96730.03;;;-6.02;100.00
20860;BME280;10590;48.154;11.514;2022-12-18T04:18:34;96736.72;;;-6.27;100.00
20860;BME280;10590;48.154;11.514;2022-12-18T04:23:36;96729.44;;;-6.25;100.00
20860;BME280;10590;48.154;11.514;2022-12-18T04:28:39;96728.78;;;-6.34;100.00
20860;BME280;10590;48.154;11.514;2022-12-18T04:33:40;96736.72;;;-6.49;100.00
20860;BME280;10590;48.154;11.514;2022-12-18T04:38:42;96738.22;;;-6.39;100.00
20860;BME280;10590;48.154;11.514;2022-12-18T04:43:45;96734.47;;;-6.30;100.00
20860;BME280;10590;48.154;11.514;2022-12-18T04:48:46;96746.19;;;-6.26;100.00
20860;BME280;10590;48.154;11.514;2022-12-18T04:53:48;96764.38;;;-6.25;100.00
20860;BME280;10590;48.154;11.514;2022-12-18T04:58:51;96769.16;;;-6.07;100.00
20860;BME280;10590;48.154;11.514;2022-12-18T05:03:53;96759.91;;;-6.52;100.00
20860;BME280;10590;48.154;11.514;2022-12-18T05:08:54;96759.13;;;-6.25;100.00
20860;BME280;10590;48.154;11.514;2022-12-18T05:13:57;96770.63;;;-6.26;100.00
20860;BME280;10590;48.154;11.514;2022-12-18T05:18:59;96777.69;;;-5.98;100.00
20860;BME280;10590;48.154;11.514;2022-12-18T05:24:01;96775.41;;;-6.08;100.00
20860;BME280;10590;48.154;11.514;2022-12-18T05:29:04;96768.72;;;-6.10;100.00
20860;BME280;10590;48.154;11.514;2022-12-18T05:34:05;96777.72;;;-6.41;100.00
20860;BME280;10590;48.154;11.514;2022-12-18T05:39:07;96780.72;;;-6.23;100.00
20860;BME280;10590;48.154;11.514;2022-12-18T05:44:10;96788.03;;;-6.18;100.00
20860;BME280;10590;48.154;11.514;2022-12-18T05:49:11;96784.84;;;-6.13;100.00
20860;BME280;10590;48.154;11.514;2022-12-18T05:54:13;96790.09;;;-6.13;100.00
20860;BME280;10590;48.154;11.514;2022-12-18T05:59:16;96792.91;;;-6.15;100.00
20860;BME280;10590;48.154;11.514;2022-12-18T06:04:17;96802.84;;;-6.32;100.00
20860;BME280;10590;48.154;11.514;2022-12-18T06:09:19;96806.16;;;-6.23;100.00
20860;BME280;10590;48.154;11.514;2022-12-18T06:14:22;96789.25;;;-6.21;100.00
20860;BME280;10590;48.154;11.514;2022-12-18T06:19:24;96790.91;;;-6.13;100.00
20860;BME280;10590;48.154;11.514;2022-12-18T06:24:25;96797.81;;;-6.05;100.00
20860;BME280;10590;48.154;11.514;2022-12-18T06:29:28;96804.53;;;-6.24;100.00
20860;BME280;10590;48.154;11.514;2022-12-18T06:34:30;96816.66;;;-6.23;100.00
20860;BME280;10590;48.154;11.514;2022-12-18T06:39:31;96831.97;;;-6.27;100.00
20860;BME280;10590;48.154;11.514;2022-12-18T06:44:34;96829.41;;;-6.20;100.00
20860;BME280;10590;48.154;11.514;2022-12-18T06:49:36;96837.09;;;-6.40;100.00
20860;BME280;10590;48.154;11.514;2022-12-18T06:54:37;96834.00;;;-6.44;100.00
20860;BME280;10590;48.154;11.514;2022-12-18T06:59:40;96838.94;;;-6.55;100.00
20860;BME280;10590;48.154;11.514;2022-12-18T07:04:42;96851.19;;;-6.41;100.00
20860;BME280;10590;48.154;11.514;2022-12-18T07:09:43;96854.19;;;-6.01;100.00
20860;BME280;10590;48.154;11.514;2022-12-18T07:14:46;96852.53;;;-6.09;100.00
20860;BME280;10590;48.154;11.514;2022-12-18T07:19:47;96877.28;;;-5.90;100.00
20860;BME280;10590;48.154;11.514;2022-12-18T07:24:49;96872.44;;;-6.14;100.00
20860;BME280;10590;48.154;11.514;2022-12-18T07:29:52;96877.00;;;-6.02;100.00
20860;BME280;10590;48.154;11.514;2022-12-18T07:34:53;96873.25;;;-6.35;100.00
20860;BME280;10590;48.154;11.514;2022-12-18T07:39:55;96867.41;;;-6.52;100.00
20860;BME280;10590;48.154;11.514;2022-12-18T07:44:59;96865.88;;;-6.61;100.00
20860;BME280;10590;48.154;11.514;2022-12-18T07:50:01;96869.16;;;-6.59;100.00
20860;BME280;10590;48.154;11.514;2022-12-18T07:55:03;96870.31;;;-6.26;100.00
20860;BME280;10590;48.154;11.514;2022-12-18T08:00:08;96880.09;;;-6.34;100.00
20860;BME280;10590;48.154;11.514;2022-12-18T08:05:09;96878.84;;;-6.38;100.00
20860;BME280;10590;48.154;11.514;2022-12-18T08:10:11;96890.31;;;-6.25;100.00
20860;BME280;10590;48.154;11.514;2022-12-18T08:15:14;96897.50;;;-6.12;100.00
20860;BME280;10590;48.154;11.514;2022-12-18T08:20:16;96904.13;;;-5.95;100.00
20860;BME280;10590;48.154;11.514;2022-12-18T08:25:18;96909.94;;;-5.99;100.00
20860;BME280;10590;48.154;11.514;2022-12-18T08:30:21;96904.03;;;-6.01;100.00
20860;BME280;10590;48.154;11.514;2022-12-18T08:35:22;96898.31;;;-6.11;100.00
20860;BME280;10590;48.154;11.514;2022-12-18T08:40:24;96898.59;;;-5.78;100.00
20860;BME280;10590;48.154;11.514;2022-12-18T08:45:27;96906.22;;;-5.83;100.00
20860;BME280;10590;48.154;11.514;2022-12-18T08:50:28;96915.81;;;-5.97;100.00
20860;BME280;10590;48.154;11.514;2022-12-18T08:55:30;96910.03;;;-5.86;100.00
20860;BME280;10590;48.154;11.514;2022-12-18T09:00:36;96911.91;;;-6.01;100.00
20860;BME280;10590;48.154;11.514;2022-12-18T09:05:37;96923.09;;;-5.71;100.00
20860;BME280;10590;48.154;11.514;2022-12-18T09:10:41;96924.84;;;-5.57;100.00
20860;BME280;10590;48.154;11.514;2022-12-18T09:15:46;96925.94;;;-5.66;100.00
20860;BME280;10590;48.154;11.514;2022-12-18T09:20:48;96920.47;;;-5.71;100.00
20860;BME280;10590;48.154;11.514;2022-12-18T09:25:50;96920.59;;;-5.58;100.00
20860;BME280;10590;48.154;11.514;2022-12-18T09:30:53;96912.44;;;-5.63;100.00
20860;BME280;10590;48.154;11.514;2022-12-18T09:35:54;96915.38;;;-5.51;100.00
20860;BME280;10590;48.154;11.514;2022-12-18T09:40:59;96912.00;;;-5.67;100.00
20860;BME280;10590;48.154;11.514;2022-12-18T09:46:06;96909.91;;;-5.78;100.00
20860;BME280;10590;48.154;11.514;2022-12-18T09:51:14;96912.94;;;-5.53;100.00
20860;BME280;10590;48.154;11.514;2022-12-18T09:56:18;96909.84;;;-6.06;100.00
20860;BME280;10590;48.154;11.514;2022-12-18T10:01:24;96896.66;;;-5.91;100.00
20860;BME280;10590;48.154;11.514;2022-12-18T10:06:32;96898.53;;;-5.85;100.00
20860;BME280;10590;48.154;11.514;2022-12-18T10:11:43;96892.13;;;-6.04;100.00
20860;BME280;10590;48.154;11.514;2022-12-18T10:16:56;96885.09;;;-5.75;100.00
20860;BME280;10590;48.154;11.514;2022-12-18T10:22:11;96879.91;;;-5.40;100.00
20860;BME280;10590;48.154;11.514;2022-12-18T10:27:22;96882.63;;;-5.55;100.00
20860;BME280;10590;48.154;11.514;2022-12-18T10:32:28;96869.41;;;-5.90;100.00
20860;BME280;10590;48.154;11.514;2022-12-18T10:37:30;96860.53;;;-5.89;100.00
20860;BME280;10590;48.154;11.514;2022-12-18T10:42:32;96861.28;;;-5.46;100.00
20860;BME280;10590;48.154;11.514;2022-12-18T10:47:35;96868.16;;;-5.45;100.00
20860;BME280;10590;48.154;11.514;2022-12-18T10:52:38;96861.63;;;-4.86;100.00
20860;BME280;10590;48.154;11.514;2022-12-18T10:57:39;96857.63;;;-4.75;100.00
20860;BME280;10590;48.154;11.514;2022-12-18T11:02:43;96865.53;;;-4.69;100.00
20860;BME280;10590;48.154;11.514;2022-12-18T11:07:48;96881.16;;;-5.36;100.00
20860;BME280;10590;48.154;11.514;2022-12-18T11:12:56;96882.06;;;-4.81;100.00
20860;BME280;10590;48.154;11.514;2022-12-18T11:18:20;96887.69;;;-5.26;100.00
20860;BME280;10590;48.154;11.514;2022-12-18T11:23:24;96881.50;;;-5.11;100.00
20860;BME280;10590;48.154;11.514;2022-12-18T11:28:29;96881.69;;;-4.72;100.00
20860;BME280;10590;48.154;11.514;2022-12-18T11:33:37;96878.88;;;-5.11;100.00
20860;BME280;10590;48.154;11.514;2022-12-18T11:38:42;96882.88;;;-4.39;100.00
20860;BME280;10590;48.154;11.514;2022-12-18T11:43:49;96864.72;;;-4.08;100.00
20860;BME280;10590;48.154;11.514;2022-12-18T11:48:58;96854.84;;;-4.60;100.00
20860;BME280;10590;48.154;11.514;2022-12-18T11:54:09;96853.63;;;-4.64;100.00
20860;BME280;10590;48.154;11.514;2022-12-18T11:59:23;96854.41;;;-4.64;100.00
20860;BME280;10590;48.154;11.514;2022-12-18T12:04:40;96859.16;;;-4.46;100.00
20860;BME280;10590;48.154;11.514;2022-12-18T12:09:53;96854.00;;;-6.00;100.00
20860;BME280;10590;48.154;11.514;2022-12-18T12:15:05;96845.53;;;-5.74;100.00
20860;BME280;10590;48.154;11.514;2022-12-18T12:20:16;96853.34;;;-4.83;100.00
20860;BME280;10590;48.154;11.514;2022-12-18T12:25:30;96839.31;;;-5.94;100.00
20860;BME280;10590;48.154;11.514;2022-12-18T12:30:42;96839.59;;;-5.54;100.00
20860;BME280;10590;48.154;11.514;2022-12-18T12:35:52;96832.53;;;-5.54;100.00
20860;BME280;10590;48.154;11.514;2022-12-18T12:40:59;96833.72;;;-5.56;100.00
20860;BME280;10590;48.154;11.514;2022-12-18T12:46:04;96832.47;;;-5.32;100.00
20860;BME280;10590;48.154;11.514;2022-12-18T12:51:12;96827.69;;;-5.22;100.00
20860;BME280;10590;48.154;11.514;2022-12-18T12:56:17;96828.53;;;-4.67;100.00
20860;BME280;10590;48.154;11.514;2022-12-18T13:01:27;96834.16;;;-5.18;100.00
20860;BME280;10590;48.154;11.514;2022-12-18T13:06:39;96841.22;;;-4.77;100.00
20860;BME280;10590;48.154;11.514;2022-12-18T13:11:45;96838.47;;;-4.62;100.00
20860;BME280;10590;48.154;11.514;2022-12-18T13:17:26;96846.06;;;-4.81;100.00
20860;BME280;10590;48.154;11.514;2022-12-18T13:22:34;96858.00;;;-5.20;100.00
20860;BME280;10590;48.154;11.514;2022-12-18T13:27:59;96847.03;;;-4.95;100.00
20860;BME280;10590;48.154;11.514;2022-12-18T13:39:10;96837.31;;;-5.92;100.00
20860;BME280;10590;48.154;11.514;2022-12-18T13:44:13;96850.06;;;-5.61;100.00
20860;BME280;10590;48.154;11.514;2022-12-18T13:49:23;96835.56;;;-5.50;100.00
20860;BME280;10590;48.154;11.514;2022-12-18T13:54:33;96832.63;;;-5.40;100.00
20860;BME280;10590;48.154;11.514;2022-12-18T13:59:36;96828.25;;;-5.55;100.00
20860;BME280;10590;48.154;11.514;2022-12-18T14:04:38;96829.78;;;-5.74;100.00
20860;BME280;10590;48.154;11.514;2022-12-18T14:09:43;96825.16;;;-5.37;100.00
20860;BME280;10590;48.154;11.514;2022-12-18T14:14:48;96843.13;;;-5.97;100.00
20860;BME280;10590;48.154;11.514;2022-12-18T14:19:51;96824.47;;;-5.80;100.00
20860;BME280;10590;48.154;11.514;2022-12-18T14:25:14;96841.75;;;-5.86;100.00
20860;BME280;10590;48.154;11.514;2022-12-18T14:30:30;96843.41;;;-6.13;100.00
20860;BME280;10590;48.154;11.514;2022-12-18T14:35:33;96844.13;;;-5.70;100.00
20860;BME280;10590;48.154;11.514;2022-12-18T14:40:36;96839.47;;;-5.46;100.00
20860;BME280;10590;48.154;11.514;2022-12-18T14:45:39;96832.91;;;-6.13;100.00
20860;BME280;10590;48.154;11.514;2022-12-18T14:50:42;96836.81;;;-6.02;100.00
20860;BME280;10590;48.154;11.514;2022-12-18T14:55:46;96836.13;;;-6.11;100.00
20860;BME280;10590;48.154;11.514;2022-12-18T15:00:48;96831.09;;;-6.12;100.00
20860;BME280;10590;48.154;11.514;2022-12-18T15:05:50;96824.94;;;-5.98;100.00
20860;BME280;10590;48.154;11.514;2022-12-18T15:10:54;96843.34;;;-6.20;100.00
20860;BME280;10590;48.154;11.514;2022-12-18T15:15:57;96840.25;;;-6.02;100.00
20860;BME280;10590;48.154;11.514;2022-12-18T15:21:08;96834.75;;;-6.07;100.00
20860;BME280;10590;48.154;11.514;2022-12-18T15:26:13;96832.00;;;-6.63;100.00
20860;BME280;10590;48.154;11.514;2022-12-18T15:31:24;96839.31;;;-6.37;100.00
20860;BME280;10590;48.154;11.514;2022-12-18T15:36:29;96842.22;;;-6.32;100.00
20860;BME280;10590;48.154;11.514;2022-12-18T15:41:34;96830.78;;;-6.24;100.00
20860;BME280;10590;48.154;11.514;2022-12-18T15:46:44;96824.94;;;-5.98;100.00
20860;BME280;10590;48.154;11.514;2022-12-18T15:51:51;96834.31;;;-6.10;100.00
20860;BME280;10590;48.154;11.514;2022-12-18T15:56:55;96836.44;;;-6.42;100.00
20860;BME280;10590;48.154;11.514;2022-12-18T16:02:17;96840.38;;;-5.82;100.00
20860;BME280;10590;48.154;11.514;2022-12-18T16:07:19;96836.88;;;-6.17;100.00
20860;BME280;10590;48.154;11.514;2022-12-18T16:12:24;96828.66;;;-6.35;100.00
20860;BME280;10590;48.154;11.514;2022-12-18T16:17:26;96839.06;;;-6.42;100.00
20860;BME280;10590;48.154;11.514;2022-12-18T16:22:29;96828.25;;;-6.54;100.00
20860;BME280;10590;48.154;11.514;2022-12-18T16:27:32;96818.00;;;-6.70;100.00
20860;BME280;10590;48.154;11.514;2022-12-18T16:32:34;96822.88;;;-6.03;100.00
20860;BME280;10590;48.154;11.514;2022-12-18T16:37:35;96827.03;;;-6.15;100.00
20860;BME280;10590;48.154;11.514;2022-12-18T16:42:40;96816.03;;;-6.04;100.00
20860;BME280;10590;48.154;11.514;2022-12-18T16:47:42;96812.59;;;-6.04;100.00
20860;BME280;10590;48.154;11.514;2022-12-18T16:52:44;96820.81;;;-6.50;100.00
20860;BME280;10590;48.154;11.514;2022-12-18T16:57:47;96820.16;;;-6.16;100.00
20860;BME280;10590;48.154;11.514;2022-12-18T17:02:49;96829.34;;;-6.27;100.00
20860;BME280;10590;48.154;11.514;2022-12-18T17:07:50;96830.34;;;-6.28;100.00
20860;BME280;10590;48.154;11.514;2022-12-18T17:12:53;96829.25;;;-6.33;100.00
20860;BME280;10590;48.154;11.514;2022-12-18T17:17:55;96819.09;;;-6.00;100.00
20860;BME280;10590;48.154;11.514;2022-12-18T17:22:57;96819.34;;;-5.88;100.00
20860;BME280;10590;48.154;11.514;2022-12-18T17:28:00;96808.03;;;-5.89;100.00
20860;BME280;10590;48.154;11.514;2022-12-18T17:33:02;96818.13;;;-6.14;100.00
20860;BME280;10590;48.154;11.514;2022-12-18T17:38:03;96812.25;;;-5.95;100.00
20860;BME280;10590;48.154;11.514;2022-12-18T17:43:06;96816.53;;;-5.87;100.00
20860;BME280;10590;48.154;11.514;2022-12-18T17:48:08;96821.56;;;-6.13;100.00
20860;BME280;10590;48.154;11.514;2022-12-18T17:53:10;96821.34;;;-5.90;100.00
20860;BME280;10590;48.154;11.514;2022-12-18T17:58:14;96809.09;;;-6.11;100.00
20860;BME280;10590;48.154;11.514;2022-12-18T18:03:15;96804.22;;;-5.86;100.00
20860;BME280;10590;48.154;11.514;2022-12-18T18:08:17;96806.34;;;-6.46;100.00
20860;BME280;10590;48.154;11.514;2022-12-18T18:13:22;96803.75;;;-6.25;100.00
20860;BME280;10590;48.154;11.514;2022-12-18T18:18:42;96806.22;;;-6.38;100.00
20860;BME280;10590;48.154;11.514;2022-12-18T18:23:43;96808.97;;;-6.25;100.00
20860;BME280;10590;48.154;11.514;2022-12-18T18:28:46;96800.94;;;-5.95;100.00
20860;BME280;10590;48.154;11.514;2022-12-18T18:33:48;96803.41;;;-6.15;100.00
20860;BME280;10590;48.154;11.514;2022-12-18T18:38:50;96801.41;;;-6.34;100.00
20860;BME280;10590;48.154;11.514;2022-12-18T18:43:55;96788.66;;;-5.88;100.00
20860;BME280;10590;48.154;11.514;2022-12-18T18:48:57;96794.47;;;-6.42;100.00
20860;BME280;10590;48.154;11.514;2022-12-18T18:53:58;96795.25;;;-5.99;100.00
20860;BME280;10590;48.154;11.514;2022-12-18T18:59:04;96792.66;;;-6.42;100.00
20860;BME280;10590;48.154;11.514;2022-12-18T19:04:05;96782.22;;;-6.13;100.00
20860;BME280;10590;48.154;11.514;2022-12-18T19:09:07;96785.47;;;-6.33;100.00
20860;BME280;10590;48.154;11.514;2022-12-18T19:14:12;96776.69;;;-6.47;100.00
20860;BME280;10590;48.154;11.514;2022-12-18T19:19:30;96775.25;;;-6.49;100.00
20860;BME280;10590;48.154;11.514;2022-12-18T19:24:32;96782.13;;;-6.27;100.00
20860;BME280;10590;48.154;11.514;2022-12-18T19:29:35;96780.00;;;-6.16;100.00
20860;BME280;10590;48.154;11.514;2022-12-18T19:34:37;96778.19;;;-6.37;100.00
20860;BME280;10590;48.154;11.514;2022-12-18T19:39:38;96771.84;;;-6.00;100.00
20860;BME280;10590;48.154;11.514;2022-12-18T19:44:41;96777.22;;;-6.08;100.00
20860;BME280;10590;48.154;11.514;2022-12-18T19:49:43;96783.06;;;-6.56;100.00
20860;BME280;10590;48.154;11.514;2022-12-18T19:54:45;96780.13;;;-6.68;100.00
20860;BME280;10590;48.154;11.514;2022-12-18T19:59:48;96782.13;;;-6.48;100.00
20860;BME280;10590;48.154;11.514;2022-12-18T20:04:49;96785.06;;;-6.36;100.00
20860;BME280;10590;48.154;11.514;2022-12-18T20:09:51;96773.56;;;-6.35;100.00
20860;BME280;10590;48.154;11.514;2022-12-18T20:14:54;96772.72;;;-6.14;100.00
20860;BME280;10590;48.154;11.514;2022-12-18T20:19:55;96763.69;;;-6.55;100.00
20860;BME280;10590;48.154;11.514;2022-12-18T20:24:57;96744.41;;;-6.69;100.00
20860;BME280;10590;48.154;11.514;2022-12-18T20:30:00;96746.53;;;-6.79;100.00
20860;BME280;10590;48.154;11.514;2022-12-18T20:35:02;96741.16;;;-6.28;100.00
20860;BME280;10590;48.154;11.514;2022-12-18T20:40:05;96744.09;;;-6.09;100.00
20860;BME280;10590;48.154;11.514;2022-12-18T20:45:08;96739.34;;;-5.99;100.00
20860;BME280;10590;48.154;11.514;2022-12-18T20:50:10;96751.72;;;-6.14;100.00
20860;BME280;10590;48.154;11.514;2022-12-18T20:55:12;96763.47;;;-6.10;100.00
20860;BME280;10590;48.154;11.514;2022-12-18T21:00:15;96761.25;;;-6.78;100.00
20860;BME280;10590;48.154;11.514;2022-12-18T21:05:17;96729.53;;;-6.40;100.00
20860;BME280;10590;48.154;11.514;2022-12-18T21:10:19;96720.75;;;-6.54;100.00
20860;BME280;10590;48.154;11.514;2022-12-18T21:15:22;96715.94;;;-6.50;100.00
20860;BME280;10590;48.154;11.514;2022-12-18T21:20:23;96722.22;;;-6.45;100.00
20860;BME280;10590;48.154;11.514;2022-12-18T21:25:25;96731.16;;;-6.39;100.00
20860;BME280;10590;48.154;11.514;2022-12-18T21:30:28;96714.75;;;-6.48;100.00
20860;BME280;10590;48.154;11.514;2022-12-18T21:35:29;96717.09;;;-6.31;100.00
20860;BME280;10590;48.154;11.514;2022-12-18T21:40:31;96715.44;;;-6.39;100.00
20860;BME280;10590;48.154;11.514;2022-12-18T21:45:34;96706.38;;;-6.08;100.00
20860;BME280;10590;48.154;11.514;2022-12-18T21:50:35;96696.47;;;-6.62;100.00
20860;BME280;10590;48.154;11.514;2022-12-18T21:55:37;96702.78;;;-6.78;100.00
20860;BME280;10590;48.154;11.514;2022-12-18T22:00:40;96714.34;;;-6.45;100.00
20860;BME280;10590;48.154;11.514;2022-12-18T22:05:41;96730.09;;;-6.45;100.00
20860;BME280;10590;48.154;11.514;2022-12-18T22:10:43;96742.72;;;-6.05;100.00
20860;BME280;10590;48.154;11.514;2022-12-18T22:15:46;96729.47;;;-5.97;100.00
20860;BME280;10590;48.154;11.514;2022-12-18T22:21:18;96712.22;;;-6.06;100.00
20860;BME280;10590;48.154;11.514;2022-12-18T22:26:22;96696.06;;;-6.10;100.00
20860;BME280;10590;48.154;11.514;2022-12-18T22:31:25;96699.91;;;-6.34;100.00
20860;BME280;10590;48.154;11.514;2022-12-18T22:36:27;96711.19;;;-6.40;100.00
20860;BME280;10590;48.154;11.514;2022-12-18T22:41:29;96704.03;;;-6.25;100.00
20860;BME280;10590;48.154;11.514;2022-12-18T22:46:33;96698.84;;;-6.68;100.00
20860;BME280;10590;48.154;11.514;2022-12-18T22:51:35;96700.41;;;-6.52;100.00
20860;BME280;10590;48.154;11.514;2022-12-18T22:56:37;96693.03;;;-6.63;100.00
20860;BME280;10590;48.154;11.514;2022-12-18T23:01:40;96688.13;;;-6.45;100.00
20860;BME280;10590;48.154;11.514;2022-12-18T23:06:43;96687.06;;;-5.94;100.00
20860;BME280;10590;48.154;11.514;2022-12-18T23:11:46;96696.53;;;-6.00;100.00
20860;BME280;10590;48.154;11.514;2022-12-18T23:16:49;96690.09;;;-5.97;100.00
20860;BME280;10590;48.154;11.514;2022-12-18T23:21:51;96674.91;;;-6.02;100.00
20860;BME280;10590;48.154;11.514;2022-12-18T23:26:52;96662.16;;;-6.11;100.00
20860;BME280;10590;48.154;11.514;2022-12-18T23:31:55;96646.41;;;-6.11;100.00
20860;BME280;10590;48.154;11.514;2022-12-18T23:36:57;96645.31;;;-5.82;100.00
20860;BME280;10590;48.154;11.514;2022-12-18T23:42:00;96634.34;;;-5.99;100.00
20860;BME280;10590;48.154;11.514;2022-12-18T23:47:03;96623.53;;;-5.76;100.00
20860;BME280;10590;48.154;11.514;2022-12-18T23:52:06;96641.47;;;-5.93;100.00
20860;BME280;10590;48.154;11.514;2022-12-18T23:57:08;96659.16;;;-6.02;100.00
